Time;durP1;ratioP1;P1;durP2;ratioP2;P2;SDS_P1;SDS_P2;PMS_P1;PMS_P2;Temp;Humidity;BMP_temperature;BMP_pressure;BME280_temperature;BME280_humidity;BME280_pressure;Samples;Min_cycle;Max_cycle;Signal;HPM_P1;HPM_P2
2023/07/18 00:02:14;;;;;;;13.03;5.73;;;20.00;84.50;;;;;;6120789;23;20025;-95
2023/07/18 00:04:41;;;;;;;10.07;5.82;;;20.00;84.50;;;;;;6120519;23;20117;-94
2023/07/18 00:07:08;;;;;;;9.30;6.53;;;20.00;84.40;;;;;;6118158;23;20022;-95
2023/07/18 00:09:37;;;;;;;8.48;5.53;;;20.00;84.40;;;;;;6116318;23;20462;-96
2023/07/18 00:12:05;;;;;;;10.02;6.32;;;20.00;84.40;;;;;;6125789;23;20018;-95
2023/07/18 00:14:33;;;;;;;10.40;6.10;;;20.00;84.30;;;;;;6121674;23;20026;-96
2023/07/18 00:17:01;;;;;;;9.48;6.30;;;20.00;84.20;;;;;;6131391;23;20017;-96
2023/07/18 00:19:33;;;;;;;10.18;6.65;;;20.00;84.30;;;;;;6128063;23;20073;-96
2023/07/18 00:22:01;;;;;;;11.88;6.18;;;20.00;84.30;;;;;;6127547;23;20045;-96
2023/07/18 00:24:30;;;;;;;11.75;6.22;;;20.00;84.30;;;;;;6121252;23;20061;-95
2023/07/18 00:26:57;;;;;;;8.97;5.40;;;20.00;84.30;;;;;;6115721;23;20455;-96
2023/07/18 00:29:24;;;;;;;8.73;5.60;;;20.00;84.10;;;;;;6113554;23;20044;-96
2023/07/18 00:31:53;;;;;;;10.95;6.05;;;20.00;84.10;;;;;;6114175;23;20136;-96
2023/07/18 00:34:20;;;;;;;9.02;5.60;;;20.10;83.90;;;;;;6149882;23;20018;-96
2023/07/18 00:36:48;;;;;;;9.20;5.82;;;20.00;83.80;;;;;;6123768;23;20022;-96
2023/07/18 00:39:16;;;;;;;10.97;5.50;;;20.00;83.60;;;;;;6126178;23;20037;-96
2023/07/18 00:41:46;;;;;;;9.38;5.70;;;20.00;83.80;;;;;;6128338;23;20044;-96
2023/07/18 00:44:18;;;;;;;9.15;5.85;;;20.10;83.70;;;;;;6146106;23;20028;-96
2023/07/18 00:46:46;;;;;;;9.07;5.20;;;20.00;83.50;;;;;;6125080;23;20028;-94
2023/07/18 00:49:14;;;;;;;10.80;6.18;;;20.00;83.60;;;;;;6116394;23;20024;-95
2023/07/18 00:51:43;;;;;;;10.60;6.27;;;20.00;83.60;;;;;;6114678;23;20024;-95
2023/07/18 00:54:10;;;;;;;10.00;6.20;;;20.00;83.60;;;;;;6122186;23;20108;-95
2023/07/18 00:56:39;;;;;;;10.27;6.53;;;20.00;83.80;;;;;;6144243;23;20072;-95
2023/07/18 00:59:08;;;;;;;14.32;6.65;;;20.00;83.70;;;;;;6123356;23;20356;-96
2023/07/18 01:01:36;;;;;;;14.32;7.30;;;20.00;83.70;;;;;;6145665;23;20048;-95
2023/07/18 01:04:05;;;;;;;9.67;6.43;;;20.00;83.70;;;;;;6114711;23;20028;-95
2023/07/18 01:06:33;;;;;;;11.90;6.35;;;20.00;83.60;;;;;;6122716;23;20017;-95
2023/07/18 01:09:00;;;;;;;11.77;5.88;;;20.00;83.40;;;;;;6112375;23;20013;-94
2023/07/18 01:11:28;;;;;;;9.95;6.72;;;20.00;83.30;;;;;;6108897;23;20451;-96
2023/07/18 01:13:55;;;;;;;11.57;6.65;;;20.00;83.10;;;;;;6108085;23;20024;-94
2023/07/18 01:16:24;;;;;;;9.47;5.63;;;20.00;83.00;;;;;;6107900;23;20045;-94
2023/07/18 01:18:52;;;;;;;10.57;6.05;;;20.00;82.90;;;;;;6111279;23;20044;-95
2023/07/18 01:21:20;;;;;;;9.98;5.63;;;20.00;82.80;;;;;;6116107;23;20017;-95
2023/07/18 01:23:48;;;;;;;9.57;5.80;;;20.00;82.70;;;;;;6114190;23;20033;-96
2023/07/18 01:26:16;;;;;;;9.75;5.43;;;20.00;82.70;;;;;;6116054;23;20025;-96
2023/07/18 01:28:45;;;;;;;10.07;5.70;;;20.00;82.50;;;;;;6148094;23;20018;-96
2023/07/18 01:31:12;;;;;;;10.32;6.15;;;20.00;82.40;;;;;;6119905;23;20077;-96
2023/07/18 01:33:41;;;;;;;8.60;5.57;;;20.00;82.60;;;;;;6121189;23;20026;-96
2023/07/18 01:36:10;;;;;;;10.65;6.18;;;20.00;82.80;;;;;;6125294;23;20018;-96
2023/07/18 01:38:38;;;;;;;9.52;5.50;;;20.00;82.70;;;;;;6150734;23;20064;-96
2023/07/18 01:45:12;;;;;;;10.57;5.68;;;19.90;82.70;;;;;;6182883;23;20098;-96
2023/07/18 01:52:39;;;;;;;11.93;6.82;;;19.90;82.70;;;;;;6183184;23;20028;-96
2023/07/18 01:59:09;;;;;;;10.50;5.73;;;20.00;82.60;;;;;;6135062;23;20039;-95
2023/07/18 02:01:45;;;;;;;9.40;5.85;;;20.00;82.70;;;;;;6158635;23;20005;-95
2023/07/18 02:04:20;;;;;;;11.55;6.03;;;19.90;82.60;;;;;;6209317;23;20029;-96
2023/07/18 02:07:22;;;;;;;11.55;6.05;;;19.90;82.60;;;;;;6189056;23;20032;-95
2023/07/18 02:09:51;;;;;;;11.85;5.88;;;19.80;82.40;;;;;;6184329;23;20016;-95
2023/07/18 02:13:08;;;;;;;10.83;5.03;;;19.70;79.70;;;;;;6178683;23;20032;-95
2023/07/18 02:20:29;;;;;;;12.25;5.20;;;20.00;74.10;;;;;;6212255;23;20055;-95
2023/07/18 02:23:40;;;;;;;10.52;5.22;;;20.20;74.60;;;;;;6161215;23;20025;-96
2023/07/18 02:31:01;;;;;;;9.30;4.87;;;20.20;71.90;;;;;;6211419;23;20048;-96
2023/07/18 02:34:12;;;;;;;9.70;4.03;;;20.10;69.00;;;;;;6175120;23;20032;-95
2023/07/18 02:36:39;;;;;;;11.75;5.57;;;20.10;68.50;;;;;;6139510;23;20392;-90
2023/07/18 02:39:08;;;;;;;10.52;4.43;;;19.90;67.80;;;;;;6136774;23;20435;-90
2023/07/18 02:41:36;;;;;;;10.50;4.13;;;19.90;66.80;;;;;;6136664;23;20032;-89
2023/07/18 02:44:06;;;;;;;11.23;4.67;;;19.80;66.80;;;;;;6136729;23;20021;-90
2023/07/18 02:46:34;;;;;;;9.38;4.20;;;19.90;68.00;;;;;;6136875;23;20028;-90
2023/07/18 02:49:02;;;;;;;11.82;4.40;;;19.90;67.00;;;;;;6161198;23;20024;-91
2023/07/18 02:51:30;;;;;;;9.00;4.97;;;19.80;66.60;;;;;;6138000;23;20017;-91
2023/07/18 02:53:57;;;;;;;10.32;4.50;;;19.90;67.20;;;;;;6138732;23;20329;-91
2023/07/18 02:56:24;;;;;;;11.17;4.93;;;19.90;67.10;;;;;;6138700;23;20021;-91
2023/07/18 02:58:51;;;;;;;10.77;4.70;;;19.90;67.00;;;;;;6138322;23;20021;-89
2023/07/18 03:01:19;;;;;;;11.55;4.55;;;19.80;68.20;;;;;;6138357;23;20021;-88
2023/07/18 03:03:46;;;;;;;10.93;4.53;;;19.70;67.70;;;;;;6162716;23;20394;-89
2023/07/18 03:06:16;;;;;;;14.73;5.43;;;19.60;68.00;;;;;;6138405;23;20024;-89
2023/07/18 03:08:44;;;;;;;12.13;5.00;;;19.60;68.20;;;;;;6162723;23;20023;-89
2023/07/18 03:11:11;;;;;;;10.18;4.63;;;19.60;68.40;;;;;;6138053;23;20021;-90
2023/07/18 03:13:38;;;;;;;11.85;4.55;;;19.60;68.10;;;;;;6138321;23;20443;-88
2023/07/18 03:16:06;;;;;;;11.02;5.00;;;19.60;67.70;;;;;;6137926;23;20021;-89
2023/07/18 03:18:35;;;;;;;10.35;4.53;;;19.60;67.80;;;;;;6138371;23;20020;-88
2023/07/18 03:21:03;;;;;;;12.13;4.27;;;19.60;67.80;;;;;;6137916;23;20021;-89
2023/07/18 03:23:30;;;;;;;13.98;5.03;;;19.60;68.10;;;;;;6137690;23;20025;-89
2023/07/18 03:25:57;;;;;;;10.38;4.72;;;19.60;67.70;;;;;;6138827;23;20048;-88
2023/07/18 03:28:24;;;;;;;8.88;4.65;;;19.60;67.80;;;;;;6162325;23;20021;-88
2023/07/18 03:30:52;;;;;;;14.00;4.93;;;19.60;68.50;;;;;;6137597;23;20017;-88
2023/07/18 03:33:19;;;;;;;14.10;5.10;;;19.60;68.60;;;;;;6137654;23;20052;-88
2023/07/18 03:35:46;;;;;;;12.38;5.20;;;19.60;68.90;;;;;;6137557;23;20100;-88
2023/07/18 03:38:13;;;;;;;9.60;4.38;;;19.60;69.50;;;;;;6137821;23;20017;-88
2023/07/18 03:40:40;;;;;;;10.90;4.88;;;19.60;70.00;;;;;;6137726;23;20028;-88
2023/07/18 03:43:07;;;;;;;10.32;4.97;;;19.60;70.30;;;;;;6137816;23;20075;-88
2023/07/18 03:45:34;;;;;;;11.53;5.03;;;19.60;70.40;;;;;;6162286;23;20025;-88
2023/07/18 03:48:01;;;;;;;12.25;5.60;;;19.60;70.30;;;;;;6137516;23;20025;-88
2023/07/18 03:50:29;;;;;;;11.32;4.57;;;19.60;70.60;;;;;;6137601;23;20028;-88
2023/07/18 03:52:56;;;;;;;11.95;5.38;;;19.50;70.40;;;;;;6137488;23;20021;-88
2023/07/18 03:55:23;;;;;;;15.80;5.53;;;19.50;70.70;;;;;;6137438;23;20027;-89
2023/07/18 03:57:50;;;;;;;9.43;4.50;;;19.50;71.00;;;;;;6137634;23;20049;-87
2023/07/18 04:00:17;;;;;;;11.75;4.80;;;19.50;71.20;;;;;;6137401;23;20029;-92
2023/07/18 04:02:46;;;;;;;12.88;4.90;;;19.50;71.50;;;;;;6137684;23;20048;-88
2023/07/18 04:05:15;;;;;;;13.18;5.47;;;19.50;71.70;;;;;;6137274;23;20025;-88
2023/07/18 04:07:43;;;;;;;10.73;5.10;;;19.50;71.00;;;;;;6137549;23;20332;-88
2023/07/18 04:10:12;;;;;;;12.67;4.93;;;19.50;70.90;;;;;;6136878;23;20021;-88
2023/07/18 04:12:42;;;;;;;11.07;4.30;;;19.50;71.50;;;;;;6137075;23;20017;-87
2023/07/18 04:15:11;;;;;;;13.52;5.38;;;19.50;71.40;;;;;;6137150;23;20343;-88
2023/07/18 04:17:38;;;;;;;10.57;5.05;;;19.50;70.60;;;;;;6161756;23;20016;-87
2023/07/18 04:20:06;;;;;;;11.48;5.38;;;19.50;71.30;;;;;;6137139;23;20399;-87
2023/07/18 04:22:33;;;;;;;10.63;5.20;;;19.60;70.30;;;;;;6137335;23;20028;-88
2023/07/18 04:25:00;;;;;;;14.25;4.95;;;19.60;70.30;;;;;;6136957;23;20055;-88
2023/07/18 04:27:30;;;;;;;11.95;5.13;;;19.60;69.60;;;;;;6137488;23;20096;-87
2023/07/18 04:29:57;;;;;;;11.77;4.68;;;19.60;69.90;;;;;;6136878;23;20017;-87
2023/07/18 04:32:25;;;;;;;12.13;4.85;;;19.70;70.90;;;;;;6136898;23;20013;-87
2023/07/18 04:34:52;;;;;;;12.37;4.93;;;19.70;69.60;;;;;;6136693;23;20032;-88
2023/07/18 04:37:20;;;;;;;11.60;4.88;;;19.70;68.90;;;;;;6137058;23;20021;-88
2023/07/18 04:39:47;;;;;;;13.45;5.07;;;19.80;69.10;;;;;;6136747;23;20107;-88
2023/07/18 04:42:15;;;;;;;9.05;4.68;;;19.90;69.50;;;;;;6136741;23;20537;-87
2023/07/18 04:44:42;;;;;;;14.70;5.65;;;20.00;70.40;;;;;;6136961;23;20455;-88
2023/07/18 04:47:09;;;;;;;10.87;4.60;;;20.00;70.80;;;;;;6136718;23;20046;-87
2023/07/18 04:49:37;;;;;;;11.85;4.50;;;20.10;69.90;;;;;;6137195;23;20048;-88
2023/07/18 04:52:04;;;;;;;12.15;4.97;;;20.20;69.90;;;;;;6136599;23;20021;-88
2023/07/18 04:54:31;;;;;;;10.15;4.47;;;20.30;70.00;;;;;;6136561;23;20104;-87
2023/07/18 04:56:58;;;;;;;10.15;4.75;;;20.50;67.30;;;;;;6136885;23;20448;-88
2023/07/18 04:59:26;;;;;;;12.23;4.70;;;20.60;67.70;;;;;;6161102;23;20451;-88
2023/07/18 05:01:56;;;;;;;13.50;4.65;;;20.70;68.20;;;;;;6136704;23;20021;-88
2023/07/18 05:04:23;;;;;;;9.00;4.32;;;20.80;65.20;;;;;;6136837;23;20017;-88
2023/07/18 05:06:50;;;;;;;12.05;4.60;;;21.00;64.00;;;;;;6136587;23;20025;-88
2023/07/18 05:09:17;;;;;;;10.45;5.10;;;21.10;64.20;;;;;;6136900;23;20028;-88
2023/07/18 05:11:46;;;;;;;9.37;4.30;;;21.10;63.10;;;;;;6161108;23;20021;-89
2023/07/18 05:14:14;;;;;;;12.23;4.63;;;21.20;63.00;;;;;;6136526;23;20077;-88
2023/07/18 05:16:41;;;;;;;10.15;4.70;;;21.30;64.50;;;;;;6137046;23;20049;-88
2023/07/18 05:19:08;;;;;;;12.85;4.38;;;21.50;65.30;;;;;;6161338;23;20017;-88
2023/07/18 05:21:35;;;;;;;10.55;4.47;;;21.50;63.40;;;;;;6136950;23;20355;-88
2023/07/18 05:24:02;;;;;;;9.70;4.27;;;21.60;61.80;;;;;;6136815;23;20049;-88
2023/07/18 05:26:29;;;;;;;10.27;4.22;;;21.70;60.40;;;;;;6136870;23;20387;-88
2023/07/18 05:28:56;;;;;;;12.77;4.45;;;21.80;59.80;;;;;;6161856;23;20028;-88
2023/07/18 05:31:24;;;;;;;9.20;4.57;;;21.80;61.90;;;;;;6160967;23;20044;-88
2023/07/18 05:33:51;;;;;;;11.25;4.60;;;21.80;63.60;;;;;;6131681;23;20022;-89
2023/07/18 05:36:18;;;;;;;11.80;3.70;;;21.90;62.00;;;;;;6156254;23;20474;-88
2023/07/18 05:38:45;;;;;;;12.38;4.18;;;21.90;60.30;;;;;;6156335;23;20029;-88
2023/07/18 05:41:12;;;;;;;11.15;4.63;;;21.90;58.60;;;;;;6156050;23;20357;-88
2023/07/18 05:43:39;;;;;;;9.15;4.28;;;22.00;60.00;;;;;;6131496;23;20029;-88
2023/07/18 05:46:06;;;;;;;12.40;4.75;;;22.00;59.20;;;;;;6131478;23;20099;-88
2023/07/18 05:48:34;;;;;;;9.80;4.07;;;22.00;59.90;;;;;;6131206;23;20024;-88
2023/07/18 05:51:01;;;;;;;12.50;4.50;;;22.20;60.20;;;;;;6131736;23;20444;-88
2023/07/18 05:53:28;;;;;;;10.73;4.40;;;22.30;59.80;;;;;;6155617;23;20372;-88
2023/07/18 05:55:55;;;;;;;9.35;3.50;;;22.30;58.30;;;;;;6131410;23;20022;-89
2023/07/18 05:58:22;;;;;;;9.45;3.88;;;22.20;56.00;;;;;;6131609;23;20020;-88
2023/07/18 06:00:50;;;;;;;11.87;4.07;;;22.20;57.70;;;;;;6155731;23;20014;-89
2023/07/18 06:03:17;;;;;;;9.93;3.90;;;22.10;57.70;;;;;;6131768;23;20076;-90
2023/07/18 06:05:44;;;;;;;12.57;4.60;;;22.30;57.40;;;;;;6156119;23;20104;-89
2023/07/18 06:08:12;;;;;;;13.32;3.65;;;22.20;57.20;;;;;;6131559;23;20032;-90
2023/07/18 06:10:39;;;;;;;10.10;4.07;;;22.20;57.30;;;;;;6131813;23;20026;-89
2023/07/18 06:13:06;;;;;;;11.90;4.07;;;22.20;56.20;;;;;;6132462;23;20049;-90
2023/07/18 06:15:33;;;;;;;9.35;4.00;;;22.30;56.70;;;;;;6131811;23;20021;-91
2023/07/18 06:18:00;;;;;;;9.80;4.03;;;22.40;57.50;;;;;;6131140;23;20041;-88
2023/07/18 06:20:27;;;;;;;9.98;3.78;;;22.50;56.90;;;;;;6131636;23;20052;-88
2023/07/18 06:22:54;;;;;;;8.77;4.13;;;22.40;55.90;;;;;;6155414;23;20025;-88
2023/07/18 06:25:21;;;;;;;8.77;4.10;;;22.50;56.20;;;;;;6130928;23;20057;-88
2023/07/18 06:27:48;;;;;;;10.07;4.07;;;22.60;54.60;;;;;;6131277;23;20025;-88
2023/07/18 06:30:16;;;;;;;9.57;4.03;;;22.60;55.60;;;;;;6155514;23;20109;-88
2023/07/18 06:32:44;;;;;;;9.70;3.92;;;22.50;54.60;;;;;;6157438;23;20017;-88
2023/07/18 06:35:12;;;;;;;12.57;3.85;;;22.60;55.60;;;;;;6136011;23;20017;-88
2023/07/18 06:37:50;;;;;;;11.03;3.60;;;22.60;56.20;;;;;;6138089;23;20025;-88
2023/07/18 06:40:17;;;;;;;8.68;3.85;;;22.60;54.60;;;;;;6136053;23;20096;-88
2023/07/18 06:42:44;;;;;;;8.15;3.50;;;22.70;55.70;;;;;;6135756;23;20013;-88
2023/07/18 06:45:12;;;;;;;11.48;3.75;;;22.60;55.40;;;;;;6135937;23;20025;-87
2023/07/18 06:47:40;;;;;;;9.05;3.35;;;22.60;55.60;;;;;;6136090;23;20040;-88
2023/07/18 06:50:07;;;;;;;9.33;3.73;;;22.60;55.50;;;;;;6135597;23;20024;-88
2023/07/18 06:52:34;;;;;;;7.35;3.20;;;22.80;55.00;;;;;;6135817;23;20024;-87
2023/07/18 06:55:04;;;;;;;9.95;3.60;;;22.90;54.00;;;;;;6160589;23;20439;-88
2023/07/18 06:57:31;;;;;;;7.03;2.22;;;23.00;52.80;;;;;;6136202;23;20048;-89
2023/07/18 06:59:58;;;;;;;9.95;2.22;;;23.00;52.90;;;;;;6160595;23;20108;-89
2023/07/18 07:02:25;;;;;;;9.97;2.87;;;22.80;52.50;;;;;;6136274;23;20017;-89
2023/07/18 07:04:52;;;;;;;7.22;2.67;;;22.60;53.90;;;;;;6136128;23;20043;-89
2023/07/18 07:07:19;;;;;;;8.35;2.17;;;22.80;55.10;;;;;;6136191;23;20020;-88
2023/07/18 07:09:46;;;;;;;6.78;2.22;;;23.00;53.70;;;;;;6160893;23;20031;-88
2023/07/18 07:12:14;;;;;;;8.43;2.65;;;23.10;54.40;;;;;;6135979;23;20339;-89
2023/07/18 07:15:01;;;;;;;6.63;2.00;;;23.10;53.60;;;;;;6140170;23;20020;-88
2023/07/18 07:17:28;;;;;;;7.20;2.08;;;23.20;53.60;;;;;;6136246;23;20017;-89
2023/07/18 07:19:55;;;;;;;8.20;2.20;;;23.30;52.50;;;;;;6136237;23;20021;-88
2023/07/18 07:22:22;;;;;;;7.72;2.25;;;23.30;52.90;;;;;;6135766;23;20025;-89
2023/07/18 07:24:49;;;;;;;6.88;1.90;;;23.30;51.80;;;;;;6136374;23;20025;-87
2023/07/18 07:27:16;;;;;;;6.70;2.03;;;23.20;50.80;;;;;;6136044;23;20032;-88
2023/07/18 07:29:43;;;;;;;6.97;2.08;;;23.00;51.40;;;;;;6160275;23;20456;-88
2023/07/18 07:32:10;;;;;;;8.70;2.22;;;23.10;51.80;;;;;;6135908;23;20017;-89
2023/07/18 07:34:37;;;;;;;9.70;2.03;;;23.20;51.70;;;;;;6135837;23;20076;-88
2023/07/18 07:37:08;;;;;;;6.93;1.85;;;23.40;51.00;;;;;;6137151;23;20020;-89
2023/07/18 07:39:36;;;;;;;8.23;1.90;;;23.40;51.80;;;;;;6137790;23;20454;-89
2023/07/18 07:42:03;;;;;;;7.18;1.98;;;23.40;52.30;;;;;;6137902;23;20122;-89
2023/07/18 07:44:31;;;;;;;6.63;2.25;;;23.30;52.00;;;;;;6137787;23;20103;-88
2023/07/18 07:46:58;;;;;;;7.15;1.77;;;23.40;52.30;;;;;;6137467;23;20103;-89
2023/07/18 07:49:25;;;;;;;6.00;1.80;;;23.50;51.20;;;;;;6137656;23;20020;-88
2023/07/18 07:51:52;;;;;;;8.03;2.00;;;23.60;51.90;;;;;;6137553;23;20014;-88
2023/07/18 07:54:19;;;;;;;6.38;1.92;;;23.70;49.80;;;;;;6137398;23;20489;-88
2023/07/18 07:56:48;;;;;;;5.82;1.75;;;23.70;47.90;;;;;;6137666;23;20459;-88
2023/07/18 07:59:15;;;;;;;6.20;1.90;;;23.70;48.80;;;;;;6161873;23;20021;-89
2023/07/18 08:01:42;;;;;;;6.78;1.80;;;23.80;50.00;;;;;;6162052;23;20100;-88
2023/07/18 08:04:11;;;;;;;7.73;2.10;;;23.90;51.10;;;;;;6137508;23;20020;-88
2023/07/18 08:06:39;;;;;;;5.00;1.60;;;23.90;49.80;;;;;;6137327;23;20021;-89
2023/07/18 08:09:06;;;;;;;5.90;1.90;;;24.00;49.00;;;;;;6137510;23;20017;-88
2023/07/18 08:11:33;;;;;;;8.13;1.83;;;24.10;48.50;;;;;;6137062;23;20110;-88
2023/07/18 08:14:01;;;;;;;6.68;1.95;;;24.00;47.20;;;;;;6137628;23;20017;-88
2023/07/18 08:16:29;;;;;;;8.77;2.00;;;24.00;49.80;;;;;;6137589;23;20040;-89
2023/07/18 08:18:57;;;;;;;5.95;1.80;;;24.00;48.70;;;;;;6137740;23;20112;-89
2023/07/18 08:21:25;;;;;;;7.15;2.30;;;24.10;50.00;;;;;;6137306;23;20017;-89
2023/07/18 08:23:52;;;;;;;8.02;2.05;;;24.30;49.60;;;;;;6161855;23;20032;-88
2023/07/18 08:26:19;;;;;;;5.65;1.80;;;24.40;48.80;;;;;;6137530;23;20017;-89
2023/07/18 08:28:47;;;;;;;5.73;1.90;;;24.40;49.40;;;;;;6162062;23;20049;-89
2023/07/18 08:31:14;;;;;;;6.20;1.83;;;24.40;48.30;;;;;;6137197;23;20371;-89
2023/07/18 08:33:42;;;;;;;6.90;1.90;;;24.50;49.00;;;;;;6137706;23;20021;-88
2023/07/18 08:36:09;;;;;;;7.15;1.45;;;24.40;47.60;;;;;;6137460;23;20021;-88
2023/07/18 08:38:37;;;;;;;6.75;1.48;;;24.50;49.20;;;;;;6137293;23;20017;-89
2023/07/18 08:41:04;;;;;;;5.27;1.57;;;24.50;47.50;;;;;;6137022;23;20465;-88
2023/07/18 08:43:33;;;;;;;6.18;1.75;;;24.40;46.10;;;;;;6136978;23;20064;-88
2023/07/18 08:46:03;;;;;;;7.30;1.98;;;24.40;48.20;;;;;;6136918;23;20025;-88
2023/07/18 08:48:31;;;;;;;6.35;1.63;;;24.50;46.30;;;;;;6161198;23;20028;-88
2023/07/18 08:51:00;;;;;;;7.18;1.70;;;24.60;48.20;;;;;;6136761;23;20021;-88
2023/07/18 08:53:27;;;;;;;6.27;2.10;;;24.70;49.50;;;;;;6137291;23;20391;-88
2023/07/18 08:55:54;;;;;;;7.70;2.33;;;24.80;47.70;;;;;;6137007;23;20023;-88
2023/07/18 08:58:25;;;;;;;5.38;1.50;;;24.90;47.40;;;;;;6137195;23;20021;-88
2023/07/18 09:00:52;;;;;;;5.03;1.73;;;24.90;46.00;;;;;;6136904;23;20021;-89
2023/07/18 09:03:19;;;;;;;10.45;3.85;;;24.80;46.30;;;;;;6137152;23;20024;-88
2023/07/18 09:05:46;;;;;;;7.37;2.03;;;24.60;46.20;;;;;;6136800;23;20107;-89
2023/07/18 09:08:13;;;;;;;6.63;1.80;;;24.60;45.10;;;;;;6136276;23;20017;-87
2023/07/18 09:10:40;;;;;;;6.22;1.80;;;24.70;47.60;;;;;;6136937;23;20076;-88
2023/07/18 09:13:09;;;;;;;6.95;2.28;;;24.80;46.30;;;;;;6161136;23;20021;-88
2023/07/18 09:15:37;;;;;;;5.70;1.70;;;24.90;47.20;;;;;;6136812;23;20436;-88
2023/07/18 09:18:07;;;;;;;6.00;1.77;;;25.10;47.10;;;;;;6136798;23;20017;-88
2023/07/18 09:20:34;;;;;;;5.05;1.50;;;25.10;47.70;;;;;;6136782;23;20452;-88
2023/07/18 09:23:03;;;;;;;6.03;2.03;;;25.10;45.40;;;;;;6161326;23;20056;-89
2023/07/18 09:25:31;;;;;;;6.95;1.98;;;25.10;45.60;;;;;;6136528;23;20021;-89
2023/07/18 09:27:58;;;;;;;6.38;1.88;;;25.10;47.00;;;;;;6137147;23;20013;-89
2023/07/18 09:30:35;;;;;;;7.27;1.67;;;24.90;45.30;;;;;;6136660;23;20040;-89
2023/07/18 09:33:06;;;;;;;6.03;1.83;;;25.00;48.00;;;;;;6161435;23;20447;-89
2023/07/18 09:35:39;;;;;;;5.75;1.75;;;25.10;45.80;;;;;;6136934;23;20045;-88
2023/07/18 09:38:09;;;;;;;6.22;1.77;;;25.00;45.80;;;;;;6136573;23;20013;-88
2023/07/18 09:40:39;;;;;;;6.00;1.52;;;25.00;45.10;;;;;;6160818;23;20088;-89
2023/07/18 09:43:06;;;;;;;8.00;2.10;;;25.00;45.70;;;;;;6136504;23;20025;-88
2023/07/18 09:45:34;;;;;;;6.63;1.85;;;25.10;45.50;;;;;;6136388;23;20264;-88
2023/07/18 09:48:03;;;;;;;6.43;2.05;;;25.10;45.50;;;;;;6160799;23;20103;-88
2023/07/18 09:50:33;;;;;;;5.80;1.65;;;25.20;45.70;;;;;;6136736;23;20332;-89
2023/07/18 09:53:04;;;;;;;6.78;1.70;;;25.30;45.80;;;;;;6136578;23;20021;-89
2023/07/18 09:55:34;;;;;;;7.00;1.90;;;25.20;45.80;;;;;;6136664;23;20379;-89
2023/07/18 09:58:02;;;;;;;5.53;1.60;;;25.30;44.20;;;;;;6136593;23;20036;-89
2023/07/18 10:00:30;;;;;;;5.57;1.92;;;25.40;44.10;;;;;;6135954;23;20021;-88
2023/07/18 10:02:57;;;;;;;5.95;1.77;;;25.50;44.10;;;;;;6160954;23;20017;-88
2023/07/18 10:05:25;;;;;;;6.20;2.03;;;25.60;43.70;;;;;;6136223;23;20021;-89
2023/07/18 10:07:52;;;;;;;7.00;1.60;;;25.60;45.80;;;;;;6136515;23;20091;-88
2023/07/18 10:10:20;;;;;;;5.60;1.55;;;25.50;44.50;;;;;;6136431;23;20017;-88
2023/07/18 10:13:00;;;;;;;8.50;1.90;;;25.60;45.80;;;;;;6136157;23;20028;-89
2023/07/18 10:15:28;;;;;;;8.50;2.15;;;25.80;48.50;;;;;;6136169;23;20017;-89
2023/07/18 10:18:15;;;;;;;6.47;2.03;;;25.80;46.00;;;;;;6136080;23;20099;-88
2023/07/18 10:20:58;;;;;;;6.53;1.93;;;25.90;44.10;;;;;;6136164;23;20355;-88
2023/07/18 10:23:42;;;;;;;7.55;1.92;;;25.90;45.70;;;;;;6136212;23;20017;-89
2023/07/18 10:26:09;;;;;;;5.95;1.85;;;25.90;44.00;;;;;;6136438;23;20017;-88
2023/07/18 10:28:44;;;;;;;6.35;1.92;;;25.90;44.00;;;;;;6136503;23;20473;-89
2023/07/18 10:31:29;;;;;;;6.93;2.03;;;25.90;45.00;;;;;;6136014;23;20031;-88
2023/07/18 10:34:14;;;;;;;8.13;1.70;;;26.00;44.70;;;;;;6136177;23;20114;-89
2023/07/18 10:36:59;;;;;;;6.15;1.63;;;26.00;44.00;;;;;;6136352;23;20017;-88
2023/07/18 10:39:54;;;;;;;6.75;1.80;;;26.10;46.00;;;;;;6136263;23;20020;-88
2023/07/18 10:42:28;;;;;;;7.07;1.83;;;26.00;43.80;;;;;;6131672;23;20023;-88
2023/07/18 10:45:06;;;;;;;7.18;1.90;;;25.90;43.30;;;;;;6136195;23;20028;-89
2023/07/18 10:47:35;;;;;;;5.87;1.70;;;25.80;42.90;;;;;;6160499;23;20021;-89
2023/07/18 10:50:04;;;;;;;8.40;1.85;;;25.80;41.70;;;;;;6136069;23;20029;-89
2023/07/18 10:52:32;;;;;;;6.07;1.70;;;26.00;43.80;;;;;;6135880;23;20044;-89
2023/07/18 10:55:00;;;;;;;7.43;1.77;;;26.20;45.50;;;;;;6136137;23;20017;-89
2023/07/18 10:57:32;;;;;;;5.63;1.83;;;26.30;45.00;;;;;;6160505;23;20021;-89
2023/07/18 11:00:02;;;;;;;6.10;1.90;;;26.50;43.30;;;;;;6136298;23;20017;-89
2023/07/18 11:02:36;;;;;;;6.50;1.83;;;26.60;45.50;;;;;;6136462;23;20456;-89
2023/07/18 11:05:13;;;;;;;6.47;1.55;;;26.80;47.00;;;;;;6136074;23;20028;-90
2023/07/18 11:07:43;;;;;;;5.97;1.77;;;27.00;45.10;;;;;;6136171;23;20021;-90
2023/07/18 11:10:10;;;;;;;7.40;1.70;;;27.10;44.40;;;;;;6136496;23;20021;-89
2023/07/18 11:12:39;;;;;;;6.70;1.87;;;27.10;44.70;;;;;;6136900;23;20021;-91
2023/07/18 11:15:07;;;;;;;6.80;1.60;;;27.20;43.40;;;;;;6138048;23;20017;-90
2023/07/18 11:17:35;;;;;;;5.70;1.52;;;27.10;41.80;;;;;;6138095;23;20017;-90
2023/07/18 11:20:04;;;;;;;7.40;1.90;;;27.10;41.30;;;;;;6137541;23;20021;-90
2023/07/18 11:22:31;;;;;;;7.50;1.95;;;27.20;42.40;;;;;;6138047;23;20021;-90
2023/07/18 11:24:59;;;;;;;6.17;1.60;;;27.30;41.90;;;;;;6137884;23;20083;-90
2023/07/18 11:27:27;;;;;;;5.07;1.48;;;27.30;44.40;;;;;;6137728;23;20020;-90
2023/07/18 11:30:08;;;;;;;5.93;1.60;;;27.20;42.60;;;;;;6138150;23;20158;-90
2023/07/18 11:32:39;;;;;;;5.88;1.80;;;27.10;42.20;;;;;;6137872;23;20024;-89
2023/07/18 11:35:21;;;;;;;7.18;1.80;;;27.00;41.70;;;;;;6137889;23;20068;-90
2023/07/18 11:37:52;;;;;;;6.70;1.60;;;27.10;40.10;;;;;;6137892;23;20328;-90
2023/07/18 11:40:25;;;;;;;5.63;1.50;;;27.20;42.00;;;;;;6162326;23;20017;-90
2023/07/18 11:42:57;;;;;;;5.95;1.85;;;27.30;42.20;;;;;;6137725;23;20104;-89
2023/07/18 11:45:27;;;;;;;6.13;1.55;;;27.40;40.30;;;;;;6137814;23;20121;-90
2023/07/18 11:47:57;;;;;;;6.40;1.90;;;27.20;40.50;;;;;;6137574;23;20469;-90
2023/07/18 11:50:29;;;;;;;6.00;1.70;;;27.10;41.90;;;;;;6137806;23;20076;-90
2023/07/18 11:52:58;;;;;;;5.75;1.50;;;27.10;41.50;;;;;;6137458;23;20091;-89
2023/07/18 11:55:25;;;;;;;5.88;1.95;;;26.90;41.10;;;;;;6137490;23;20391;-90
2023/07/18 11:57:52;;;;;;;6.32;2.17;;;26.90;42.40;;;;;;6137917;23;20023;-89
2023/07/18 12:00:20;;;;;;;7.28;1.70;;;26.90;42.70;;;;;;6137849;23;20022;-89
2023/07/18 12:02:48;;;;;;;6.10;1.57;;;27.00;42.60;;;;;;6137521;23;20017;-90
2023/07/18 12:05:16;;;;;;;6.30;2.10;;;27.20;42.40;;;;;;6137520;23;20025;-90
2023/07/18 12:07:44;;;;;;;6.40;1.90;;;27.40;43.30;;;;;;6137818;23;20028;-89
2023/07/18 12:10:15;;;;;;;6.45;1.75;;;27.60;42.50;;;;;;6137321;23;20055;-90
2023/07/18 12:12:42;;;;;;;6.05;1.30;;;27.80;40.70;;;;;;6137556;23;20017;-90
2023/07/18 12:15:11;;;;;;;7.60;2.07;;;27.70;41.30;;;;;;6137656;23;20021;-89
2023/07/18 12:17:54;;;;;;;5.78;1.50;;;27.70;41.20;;;;;;6138122;23;20032;-91
2023/07/18 12:20:28;;;;;;;6.88;1.70;;;27.80;41.40;;;;;;6161943;23;20092;-90
2023/07/18 12:22:56;;;;;;;6.75;1.70;;;28.00;42.30;;;;;;6137382;23;20025;-90
2023/07/18 12:25:24;;;;;;;8.23;2.17;;;28.20;42.50;;;;;;6137629;23;20455;-91
2023/07/18 12:27:51;;;;;;;8.40;1.50;;;28.30;42.00;;;;;;6137404;23;20025;-91
2023/07/18 12:30:18;;;;;;;6.97;1.70;;;28.40;40.70;;;;;;6161842;23;20067;-90
2023/07/18 12:32:45;;;;;;;7.10;1.88;;;28.20;38.20;;;;;;6137369;23;20017;-90
2023/07/18 12:35:14;;;;;;;7.05;1.67;;;28.20;41.30;;;;;;6137505;23;20017;-90
2023/07/18 12:37:41;;;;;;;8.82;1.77;;;28.10;40.20;;;;;;6137461;23;20045;-90
2023/07/18 12:40:09;;;;;;;5.27;1.53;;;28.10;38.80;;;;;;6137511;23;20447;-90
2023/07/18 12:42:37;;;;;;;7.18;1.75;;;28.10;40.20;;;;;;6137591;23;20023;-91
2023/07/18 12:45:04;;;;;;;6.88;1.73;;;28.20;40.10;;;;;;6137506;23;20053;-91
2023/07/18 12:47:31;;;;;;;6.65;1.50;;;28.10;39.30;;;;;;6137293;23;20028;-91
2023/07/18 12:49:58;;;;;;;4.72;1.70;;;28.10;39.30;;;;;;6137724;23;20021;-90
2023/07/18 12:52:25;;;;;;;5.60;1.60;;;28.10;39.20;;;;;;6137397;23;20020;-90
2023/07/18 12:54:53;;;;;;;5.38;1.50;;;28.10;40.00;;;;;;6137445;23;20028;-90
2023/07/18 12:57:20;;;;;;;6.13;1.80;;;28.10;41.40;;;;;;6137354;23;20395;-90
2023/07/18 12:59:47;;;;;;;7.03;2.10;;;28.10;39.70;;;;;;6137180;23;20017;-90
2023/07/18 13:02:14;;;;;;;6.18;1.52;;;28.00;37.90;;;;;;6137381;23;20036;-90
2023/07/18 13:04:41;;;;;;;6.10;1.80;;;27.90;39.00;;;;;;6137110;23;20099;-90
2023/07/18 13:07:08;;;;;;;6.82;2.00;;;27.80;38.70;;;;;;6137160;23;20363;-90
2023/07/18 13:09:38;;;;;;;6.43;1.77;;;28.00;40.30;;;;;;6136987;23;20470;-90
2023/07/18 13:12:09;;;;;;;5.38;1.42;;;28.10;38.50;;;;;;6137067;23;20360;-90
2023/07/18 13:14:36;;;;;;;4.78;1.77;;;28.30;41.20;;;;;;6137197;23;20448;-91
2023/07/18 13:17:03;;;;;;;5.20;1.73;;;28.50;38.70;;;;;;6137124;23;20021;-91